createdAt,value
2019-04-07T00:02:17.444Z,48.59
2019-04-07T00:04:48.939Z,48.62
2019-04-07T00:07:20.372Z,48.68
2019-04-07T00:09:52.766Z,48.68
2019-04-07T00:12:24.313Z,48.55
2019-04-07T00:14:56.215Z,48.34
2019-04-07T00:17:27.791Z,48.51
2019-04-07T00:19:59.126Z,48.88
2019-04-07T00:22:30.506Z,48.98
2019-04-07T00:25:02.564Z,49.31
2019-04-07T00:27:34.157Z,49.53
2019-04-07T00:30:07.624Z,49.69
2019-04-07T00:32:39.072Z,49.64
2019-04-07T00:35:22.155Z,49.67
2019-04-07T00:37:44.895Z,49.86
2019-04-07T00:40:17.470Z,49.95
2019-04-07T00:42:49.012Z,49.89
2019-04-07T00:45:20.644Z,50.10
2019-04-07T00:47:52.617Z,50.08
2019-04-07T00:50:24.170Z,50.27
2019-04-07T00:52:55.520Z,50.21
2019-04-07T00:55:26.986Z,50.18
2019-04-07T00:57:58.490Z,50.09
2019-04-07T01:00:31.487Z,50.18
2019-04-07T01:03:02.988Z,50.25
2019-04-07T01:05:38.484Z,50.50
2019-04-07T01:08:07.501Z,50.70
2019-04-07T01:10:38.939Z,50.80
2019-04-07T01:13:26.225Z,50.76
2019-04-07T01:15:58.040Z,50.59
2019-04-07T01:18:33.839Z,50.92
2019-04-07T01:21:05.599Z,51.04
2019-04-07T01:23:37.047Z,51.15
2019-04-07T01:26:08.638Z,51.39
2019-04-07T01:28:40.668Z,51.64
2019-04-07T01:31:12.311Z,51.94
2019-04-07T01:33:44.275Z,52.18
2019-04-07T01:36:16.097Z,52.32
2019-04-07T01:38:47.692Z,52.64
2019-04-07T01:41:32.908Z,52.25
2019-04-07T01:44:06.060Z,52.45
2019-04-07T01:46:41.788Z,52.42
2019-04-07T01:49:18.394Z,52.44
2019-04-07T01:51:54.351Z,52.32
2019-04-07T01:54:42.092Z,52.15
2019-04-07T01:57:21.377Z,51.98
2019-04-07T01:59:57.327Z,52.25
2019-04-07T02:02:40.118Z,52.29
2019-04-07T02:05:28.778Z,52.35
2019-04-07T02:08:05.477Z,52.61
2019-04-07T02:10:41.612Z,52.57
2019-04-07T02:13:29.633Z,52.68
2019-04-07T02:16:09.189Z,52.90
2019-04-07T02:18:42.304Z,52.63
2019-04-07T02:21:15.260Z,52.51
2019-04-07T02:23:51.000Z,52.58
2019-04-07T02:26:39.126Z,52.47
2019-04-07T02:29:12.626Z,52.54
2019-04-07T02:31:48.430Z,52.72
2019-04-07T02:34:22.006Z,52.78
2019-04-07T02:36:55.860Z,52.73
2019-04-07T02:39:35.209Z,52.78
2019-04-07T02:42:11.333Z,52.82
2019-04-07T02:45:01.399Z,53.02
2019-04-07T02:47:37.678Z,52.98
2019-04-07T02:50:27.834Z,53.01
2019-04-07T02:53:19.513Z,53.16
2019-04-07T02:56:10.672Z,53.24
2019-04-07T02:58:47.636Z,53.30
2019-04-07T03:01:33.051Z,53.39
2019-04-07T03:04:12.748Z,54.95
2019-04-07T03:07:02.709Z,54.34
2019-04-07T03:09:45.981Z,55.03
2019-04-07T03:12:19.143Z,54.86
2019-04-07T03:15:11.086Z,56.48
2019-04-07T03:18:00.710Z,56.13
2019-04-07T03:20:39.195Z,55.75
2019-04-07T03:23:16.158Z,55.61
2019-04-07T03:25:55.314Z,55.44
2019-04-07T03:28:34.681Z,55.36
2019-04-07T03:31:12.635Z,55.18
2019-04-07T03:33:56.457Z,55.12
2019-04-07T03:37:03.009Z,54.94
2019-04-07T03:39:10.777Z,54.62
2019-04-07T03:41:44.032Z,54.50
2019-04-07T03:44:18.534Z,55.17
2019-04-07T03:47:01.444Z,54.36
2019-04-07T03:49:50.874Z,54.27
2019-04-07T03:52:29.739Z,54.17
2019-04-07T03:55:02.752Z,54.89
2019-04-07T03:57:45.149Z,54.96
2019-04-07T04:00:50.364Z,53.53
2019-04-07T04:03:26.540Z,53.40
2019-04-07T04:06:16.223Z,54.35
2019-04-07T04:08:49.226Z,54.20
2019-04-07T04:11:23.501Z,53.90
2019-04-07T04:14:02.967Z,53.78
2019-04-07T04:16:36.167Z,52.65
2019-04-07T04:19:08.274Z,52.26
2019-04-07T04:21:40.405Z,52.18
2019-04-07T04:24:12.273Z,51.83
2019-04-07T04:26:44.131Z,51.86
2019-04-07T04:29:15.696Z,51.49
2019-04-07T04:31:47.472Z,51.51
2019-04-07T04:34:20.521Z,51.51
2019-04-07T04:36:53.050Z,51.60
2019-04-07T04:39:25.316Z,51.15
2019-04-07T04:41:57.631Z,52.34
2019-04-07T04:44:29.506Z,51.71
2019-04-07T04:47:01.623Z,51.09
2019-04-07T04:49:35.132Z,51.43
2019-04-07T04:52:07.141Z,51.28
2019-04-07T04:54:38.896Z,51.29
2019-04-07T04:57:11.146Z,50.26
2019-04-07T04:59:42.633Z,50.87
2019-04-07T05:02:14.021Z,50.32
2019-04-07T05:04:45.874Z,51.41
2019-04-07T05:07:17.376Z,51.53
2019-04-07T05:09:52.860Z,51.78
2019-04-07T05:12:22.027Z,51.81
2019-04-07T05:14:53.668Z,51.90
2019-04-07T05:17:26.067Z,52.03
2019-04-07T05:19:57.722Z,51.84
2019-04-07T05:22:29.253Z,51.50
2019-04-07T05:25:00.967Z,50.80
2019-04-07T05:27:32.729Z,50.80
2019-04-07T05:30:07.832Z,50.79
2019-04-07T05:32:39.971Z,50.88
2019-04-07T05:35:12.074Z,50.49
2019-04-07T05:37:43.636Z,50.70
2019-04-07T05:40:16.602Z,50.31
2019-04-07T05:42:48.349Z,50.72
2019-04-07T05:45:20.448Z,50.14
2019-04-07T05:47:53.365Z,50.00
2019-04-07T05:50:28.067Z,49.82
2019-04-07T05:52:58.735Z,49.64
2019-04-07T05:55:30.489Z,49.28
2019-04-07T05:58:05.131Z,49.04
2019-04-07T06:00:35.297Z,48.90
2019-04-07T06:03:08.481Z,48.48
2019-04-07T06:05:40.079Z,48.38
2019-04-07T06:08:22.671Z,48.31
2019-04-07T06:10:45.908Z,48.11
2019-04-07T06:13:17.688Z,48.12
2019-04-07T06:15:51.130Z,47.60
2019-04-07T06:18:22.897Z,47.18
2019-04-07T06:20:54.526Z,47.14
2019-04-07T06:23:29.377Z,47.21
2019-04-07T06:26:00.243Z,47.08
2019-04-07T06:28:31.731Z,47.11
2019-04-07T06:31:03.275Z,47.02
2019-04-07T06:33:38.095Z,47.04
2019-04-07T06:36:08.463Z,47.14
2019-04-07T06:38:43.262Z,47.08
2019-04-07T06:41:13.801Z,46.14
2019-04-07T06:43:45.383Z,45.92
2019-04-07T06:46:22.649Z,45.91
2019-04-07T06:49:13.957Z,45.96
2019-04-07T06:51:47.930Z,45.90
2019-04-07T06:54:37.722Z,46.14
2019-04-07T06:57:23.343Z,46.17
2019-04-07T07:00:12.845Z,45.65
2019-04-07T07:02:46.143Z,45.45
2019-04-07T07:05:28.918Z,45.25
2019-04-07T07:08:21.098Z,45.04
2019-04-07T07:10:59.361Z,45.11
2019-04-07T07:13:36.690Z,44.88
2019-04-07T07:16:14.640Z,44.44
2019-04-07T07:18:45.891Z,44.63
2019-04-07T07:21:28.702Z,44.20
2019-04-07T07:24:00.245Z,43.74
2019-04-07T07:26:35.110Z,43.83
2019-04-07T07:29:06.369Z,43.19
2019-04-07T07:31:37.953Z,43.19
2019-04-07T07:34:10.822Z,43.18
2019-04-07T07:36:42.847Z,42.91
2019-04-07T07:39:14.596Z,43.05
2019-04-07T07:41:46.303Z,42.29
2019-04-07T07:44:17.830Z,41.99
2019-04-07T07:46:50.672Z,41.88
2019-04-07T07:49:22.351Z,41.55
2019-04-07T07:51:54.003Z,41.29
2019-04-07T07:54:28.347Z,41.47
2019-04-07T07:56:59.070Z,41.44
2019-04-07T07:59:34.604Z,41.47
2019-04-07T08:02:11.029Z,41.09
2019-04-07T08:04:43.515Z,40.65
2019-04-07T08:07:16.545Z,40.66
2019-04-07T08:09:48.178Z,40.71
2019-04-07T08:12:20.577Z,40.52
2019-04-07T08:14:55.236Z,40.29
2019-04-07T08:17:25.911Z,39.84
2019-04-07T08:19:57.788Z,39.54
2019-04-07T08:22:33.752Z,39.38
2019-04-07T08:25:02.523Z,39.33
2019-04-07T08:27:34.428Z,38.97
2019-04-07T08:30:12.514Z,38.74
2019-04-07T08:32:42.220Z,38.54
2019-04-07T08:35:14.348Z,38.79
2019-04-07T08:37:47.619Z,38.89
2019-04-07T08:40:19.928Z,38.63
2019-04-07T08:42:52.149Z,38.77
2019-04-07T08:45:23.563Z,38.57
2019-04-07T08:47:55.436Z,38.39
2019-04-07T08:50:28.503Z,38.27
2019-04-07T08:53:00.219Z,38.02
2019-04-07T08:55:31.696Z,37.77
2019-04-07T08:58:05.305Z,37.47
2019-04-07T09:00:40.449Z,37.39
2019-04-07T09:03:15.130Z,37.34
2019-04-07T09:05:45.519Z,37.18
2019-04-07T09:08:17.870Z,37.29
2019-04-07T09:11:10.058Z,37.26
2019-04-07T09:13:44.054Z,37.62
2019-04-07T09:16:20.080Z,37.08
2019-04-07T09:19:09.493Z,36.89
2019-04-07T09:21:51.632Z,36.53
2019-04-07T09:24:36.085Z,36.37
2019-04-07T09:27:12.036Z,36.55
2019-04-07T09:29:58.985Z,36.53
2019-04-07T09:32:38.379Z,36.29
2019-04-07T09:35:15.514Z,36.09
2019-04-07T09:37:53.357Z,36.21
2019-04-07T09:40:28.855Z,36.12
2019-04-07T09:43:01.944Z,36.04
2019-04-07T09:45:38.574Z,36.11
2019-04-07T09:48:10.883Z,35.80
2019-04-07T09:50:55.161Z,36.05
2019-04-07T09:53:28.639Z,35.64
2019-04-07T09:56:08.739Z,35.91
2019-04-07T09:58:55.889Z,36.03
2019-04-07T10:01:35.319Z,36.19
2019-04-07T10:04:15.242Z,36.26
2019-04-07T10:07:04.830Z,36.21
2019-04-07T10:10:04.751Z,36.03
2019-04-07T10:12:44.930Z,36.07
2019-04-07T10:15:36.202Z,35.86
2019-04-07T10:18:13.117Z,35.92
2019-04-07T10:20:46.721Z,36.24
2019-04-07T10:23:25.410Z,36.08
2019-04-07T10:26:15.693Z,35.51
2019-04-07T10:28:51.683Z,35.93
2019-04-07T10:31:24.620Z,36.24
2019-04-07T10:34:16.280Z,36.07
2019-04-07T10:36:55.752Z,36.04
2019-04-07T10:39:28.856Z,36.29
2019-04-07T10:42:19.006Z,36.25
2019-04-07T10:45:04.730Z,36.35
2019-04-07T10:47:41.191Z,36.31
2019-04-07T10:50:32.544Z,36.52
2019-04-07T10:53:06.299Z,36.49
2019-04-07T10:55:43.050Z,36.01
2019-04-07T10:58:32.357Z,35.92
2019-04-07T11:01:10.008Z,35.82
2019-04-07T11:03:59.835Z,35.54
2019-04-07T11:06:42.150Z,35.21
2019-04-07T11:09:18.170Z,35.45
2019-04-07T11:12:07.413Z,35.69
2019-04-07T11:14:44.443Z,35.36
2019-04-07T11:17:25.392Z,35.24
2019-04-07T11:20:04.291Z,35.38
2019-04-07T11:22:53.099Z,35.18
2019-04-07T11:25:46.147Z,35.04
2019-04-07T11:28:27.872Z,35.21
2019-04-07T11:31:00.583Z,35.31
2019-04-07T11:33:38.038Z,35.34
2019-04-07T11:36:21.515Z,35.03
2019-04-07T11:39:00.545Z,34.97
2019-04-07T11:41:50.286Z,35.00
2019-04-07T11:44:32.363Z,35.66
2019-04-07T11:47:07.181Z,35.66
2019-04-07T11:49:53.985Z,35.87
2019-04-07T11:52:29.095Z,36.16
2019-04-07T11:55:18.753Z,36.08
2019-04-07T11:58:09.713Z,35.40
2019-04-07T12:00:41.966Z,34.87
2019-04-07T12:03:33.376Z,34.68
2019-04-07T12:06:07.585Z,35.06
2019-04-07T12:08:51.473Z,35.32
2019-04-07T12:11:31.045Z,35.19
2019-04-07T12:14:20.601Z,35.25
2019-04-07T12:16:55.044Z,34.87
2019-04-07T12:19:34.229Z,34.90
2019-04-07T12:22:12.811Z,34.84
2019-04-07T12:24:45.714Z,34.86
2019-04-07T12:27:31.480Z,34.98
2019-04-07T12:30:22.537Z,35.36
2019-04-07T12:33:12.168Z,35.75
2019-04-07T12:35:55.144Z,35.45
2019-04-07T12:38:30.679Z,35.27
2019-04-07T12:41:15.079Z,35.45
2019-04-07T12:43:49.562Z,35.50
2019-04-07T12:46:29.110Z,35.80
2019-04-07T12:49:10.187Z,35.92
2019-04-07T12:51:55.983Z,35.54
2019-04-07T12:54:44.884Z,34.54
2019-04-07T12:57:35.428Z,34.35
2019-04-07T13:00:27.723Z,34.56
2019-04-07T13:03:11.679Z,34.61
2019-04-07T13:06:01.909Z,34.48
2019-04-07T13:08:45.832Z,34.53
2019-04-07T13:11:31.986Z,33.97
2019-04-07T13:14:05.040Z,34.32
2019-04-07T13:16:52.879Z,34.26
2019-04-07T13:19:29.835Z,34.70
2019-04-07T13:22:20.280Z,34.30
2019-04-07T13:24:58.189Z,34.41
2019-04-07T13:27:42.774Z,34.20
2019-04-07T13:30:17.074Z,34.22
2019-04-07T13:32:56.672Z,34.54
2019-04-07T13:35:29.481Z,34.28
2019-04-07T13:38:03.226Z,34.23
2019-04-07T13:40:36.244Z,34.44
2019-04-07T13:43:12.312Z,34.58
2019-04-07T13:46:04.102Z,34.53
2019-04-07T13:48:38.912Z,34.79
2019-04-07T13:51:29.586Z,34.56
2019-04-07T13:54:16.208Z,34.33
2019-04-07T13:56:52.122Z,34.62
2019-04-07T13:59:44.071Z,34.42
2019-04-07T14:02:35.656Z,34.17
2019-04-07T14:05:11.267Z,34.39
2019-04-07T14:07:51.767Z,34.66
2019-04-07T14:10:25.623Z,34.57
2019-04-07T14:13:07.910Z,34.71
2019-04-07T14:15:46.426Z,34.97
2019-04-07T14:18:35.571Z,35.09
2019-04-07T14:21:34.933Z,34.84
2019-04-07T14:24:28.315Z,34.57
2019-04-07T14:27:04.360Z,34.43
2019-04-07T14:29:53.059Z,34.47
2019-04-07T14:32:45.402Z,34.07
2019-04-07T14:35:43.095Z,34.29
2019-04-07T14:38:16.913Z,34.54
2019-04-07T14:40:50.033Z,34.68
2019-04-07T14:43:29.906Z,34.70
2019-04-07T14:46:21.134Z,34.66
2019-04-07T14:49:01.129Z,34.48
2019-04-07T14:51:45.083Z,34.31
2019-04-07T14:54:36.447Z,34.29
2019-04-07T14:57:10.454Z,34.25
2019-04-07T14:59:43.844Z,34.52
2019-04-07T15:02:17.100Z,34.42
2019-04-07T15:04:50.951Z,34.76
2019-04-07T15:07:26.375Z,34.62
2019-04-07T15:09:59.835Z,34.49
2019-04-07T15:12:48.562Z,34.57
2019-04-07T15:15:21.457Z,34.30
2019-04-07T15:17:55.804Z,34.45
2019-04-07T15:20:28.139Z,34.32
2019-04-07T15:23:00.580Z,34.73
2019-04-07T15:25:32.842Z,35.02
2019-04-07T15:28:04.457Z,35.19
2019-04-07T15:30:36.299Z,34.99
2019-04-07T15:33:07.843Z,35.33
2019-04-07T15:35:39.561Z,35.30
2019-04-07T15:38:11.437Z,35.62
2019-04-07T15:40:44.020Z,35.47
2019-04-07T15:43:15.851Z,35.54
2019-04-07T15:45:48.635Z,35.88
2019-04-07T15:48:21.406Z,35.56
2019-04-07T15:50:54.083Z,35.69
2019-04-07T15:53:25.683Z,35.93
2019-04-07T15:56:03.043Z,36.11
2019-04-07T15:58:31.000Z,35.95
2019-04-07T16:01:05.908Z,36.16
2019-04-07T16:03:35.653Z,36.22
2019-04-07T16:06:07.804Z,36.00
2019-04-07T16:08:40.437Z,36.46
2019-04-07T16:11:12.661Z,36.41
2019-04-07T16:13:44.376Z,36.44
2019-04-07T16:16:15.940Z,36.38
2019-04-07T16:18:47.413Z,36.69
2019-04-07T16:21:19.527Z,36.60
2019-04-07T16:23:53.351Z,36.90
2019-04-07T16:26:26.100Z,37.09
2019-04-07T16:28:57.941Z,37.15
2019-04-07T16:31:31.182Z,37.00
2019-04-07T16:34:07.531Z,37.21
2019-04-07T16:36:38.018Z,37.31
2019-04-07T16:39:09.980Z,37.41
2019-04-07T16:41:44.232Z,37.42
2019-04-07T16:44:14.596Z,37.29
2019-04-07T16:46:45.966Z,37.67
2019-04-07T16:49:18.986Z,37.98
2019-04-07T16:51:51.471Z,37.96
2019-04-07T16:54:23.402Z,37.84
2019-04-07T16:56:57.143Z,37.81
2019-04-07T16:59:28.288Z,38.03
2019-04-07T17:02:00.214Z,37.90
2019-04-07T17:04:32.238Z,38.07
2019-04-07T17:07:05.462Z,38.71
2019-04-07T17:09:36.857Z,40.22
2019-04-07T17:12:11.129Z,40.41
2019-04-07T17:14:41.328Z,40.65
2019-04-07T17:17:15.616Z,40.81
2019-04-07T17:19:45.949Z,40.46
2019-04-07T17:22:18.136Z,39.96
2019-04-07T17:24:50.680Z,39.63
2019-04-07T17:27:22.934Z,40.04
2019-04-07T17:29:55.447Z,40.16
2019-04-07T17:32:27.429Z,39.92
2019-04-07T17:34:59.733Z,39.83
2019-04-07T17:37:31.801Z,39.98
2019-04-07T17:40:08.672Z,40.16
2019-04-07T17:42:39.822Z,40.20
2019-04-07T17:45:29.731Z,40.28
2019-04-07T17:48:07.137Z,40.50
2019-04-07T17:50:44.203Z,41.04
2019-04-07T17:53:19.243Z,41.02
2019-04-07T17:55:59.806Z,41.30
2019-04-07T17:58:36.758Z,41.50
2019-04-07T18:01:24.801Z,41.31
2019-04-07T18:04:17.259Z,41.11
2019-04-07T18:07:07.869Z,41.16
2019-04-07T18:09:51.437Z,41.16
2019-04-07T18:12:27.668Z,41.18
2019-04-07T18:15:17.947Z,41.28
2019-04-07T18:17:53.216Z,41.58
2019-04-07T18:20:40.472Z,41.63
2019-04-07T18:23:13.371Z,41.64
2019-04-07T18:25:46.352Z,41.86
2019-04-07T18:28:23.749Z,42.18
2019-04-07T18:30:57.358Z,42.24
2019-04-07T18:33:33.570Z,42.50
2019-04-07T18:36:19.175Z,42.53
2019-04-07T18:38:56.003Z,42.41
2019-04-07T18:41:47.465Z,42.34
2019-04-07T18:44:30.564Z,42.30
2019-04-07T18:47:07.977Z,42.39
2019-04-07T18:49:53.813Z,42.53
2019-04-07T18:52:43.420Z,42.43
2019-04-07T18:55:27.311Z,42.40
2019-04-07T18:58:00.742Z,42.57
2019-04-07T19:00:37.168Z,42.65
2019-04-07T19:03:10.604Z,43.02
2019-04-07T19:05:43.766Z,43.13
2019-04-07T19:08:20.752Z,43.48
2019-04-07T19:11:16.773Z,43.60
2019-04-07T19:14:21.834Z,43.64
2019-04-07T19:16:36.186Z,43.88
2019-04-07T19:19:14.711Z,44.22
2019-04-07T19:22:04.578Z,44.51
2019-04-07T19:24:37.902Z,44.18
2019-04-07T19:27:19.598Z,44.09
2019-04-07T19:29:57.378Z,43.72
2019-04-07T19:32:31.338Z,43.60
2019-04-07T19:35:21.765Z,43.83
2019-04-07T19:38:14.218Z,43.64
2019-04-07T19:41:00.199Z,44.07
2019-04-07T19:43:33.071Z,43.74
2019-04-07T19:46:15.795Z,43.81
2019-04-07T19:48:49.148Z,44.29
2019-04-07T19:51:34.094Z,44.06
2019-04-07T19:54:07.382Z,44.00
2019-04-07T19:56:46.629Z,44.30
2019-04-07T19:59:21.719Z,44.28
2019-04-07T20:02:03.923Z,44.58
2019-04-07T20:04:44.168Z,44.45
2019-04-07T20:07:21.073Z,44.45
2019-04-07T20:10:06.721Z,44.49
2019-04-07T20:12:45.160Z,44.17
2019-04-07T20:15:29.617Z,44.02
2019-04-07T20:18:07.129Z,44.10
2019-04-07T20:20:50.640Z,44.77
2019-04-07T20:23:28.522Z,44.75
2019-04-07T20:25:59.444Z,44.99
2019-04-07T20:28:35.875Z,45.00
2019-04-07T20:31:09.114Z,44.79
2019-04-07T20:33:45.713Z,44.83
2019-04-07T20:36:24.153Z,44.82
2019-04-07T20:39:00.388Z,44.59
2019-04-07T20:41:47.886Z,44.86
2019-04-07T20:44:25.816Z,44.84
2019-04-07T20:47:05.147Z,45.07
2019-04-07T20:49:42.470Z,44.99
2019-04-07T20:52:17.784Z,44.83
2019-04-07T20:55:08.487Z,44.96
2019-04-07T20:58:13.112Z,45.31
2019-04-07T21:00:57.714Z,45.32
2019-04-07T21:03:38.253Z,45.09
2019-04-07T21:06:11.218Z,45.45
2019-04-07T21:08:56.103Z,45.58
2019-04-07T21:11:29.148Z,45.37
2019-04-07T21:14:05.937Z,45.40
2019-04-07T21:16:57.889Z,45.50
2019-04-07T21:19:35.473Z,45.62
2019-04-07T21:22:16.954Z,45.73
2019-04-07T21:24:58.734Z,45.98
2019-04-07T21:27:38.678Z,46.09
2019-04-07T21:30:29.072Z,46.25
2019-04-07T21:33:02.451Z,46.52
2019-04-07T21:35:51.507Z,46.83
2019-04-07T21:38:29.820Z,47.19
2019-04-07T21:41:18.557Z,47.49
2019-04-07T21:44:01.632Z,47.48
2019-04-07T21:46:35.074Z,47.66
2019-04-07T21:49:08.178Z,47.88
2019-04-07T21:51:57.431Z,47.80
2019-04-07T21:54:39.238Z,48.14
2019-04-07T21:57:19.296Z,48.20
2019-04-07T21:59:56.231Z,48.44
2019-04-07T22:02:47.907Z,48.56
2019-04-07T22:05:37.065Z,48.44
2019-04-07T22:08:14.569Z,48.41
2019-04-07T22:10:43.227Z,48.33
2019-04-07T22:13:15.396Z,48.28
2019-04-07T22:15:51.873Z,48.41
2019-04-07T22:18:19.983Z,48.26
2019-04-07T22:20:54.461Z,48.53
2019-04-07T22:23:25.108Z,48.69
2019-04-07T22:25:57.043Z,48.79
2019-04-07T22:28:30.009Z,48.82
2019-04-07T22:31:01.562Z,48.86
2019-04-07T22:33:33.750Z,48.84
2019-04-07T22:36:05.910Z,48.73
2019-04-07T22:38:37.687Z,48.58
2019-04-07T22:41:10.088Z,48.49
2019-04-07T22:43:41.589Z,48.57
2019-04-07T22:46:21.318Z,48.53
2019-04-07T22:48:46.059Z,48.58
2019-04-07T22:51:17.499Z,48.56
2019-04-07T22:53:49.652Z,48.64
2019-04-07T22:56:20.965Z,48.55
2019-04-07T22:58:52.473Z,48.67
2019-04-07T23:01:23.785Z,48.24
2019-04-07T23:03:56.041Z,48.23
2019-04-07T23:06:27.584Z,48.14
2019-04-07T23:08:59.431Z,48.07
2019-04-07T23:11:30.970Z,47.92
2019-04-07T23:14:03.094Z,48.00
2019-04-07T23:16:34.510Z,47.99
2019-04-07T23:19:06.729Z,47.95
2019-04-07T23:21:38.051Z,48.21
2019-04-07T23:24:09.704Z,48.17
2019-04-07T23:26:41.202Z,48.12
2019-04-07T23:29:12.651Z,48.29
2019-04-07T23:31:44.147Z,48.36
2019-04-07T23:34:15.451Z,48.18
2019-04-07T23:36:46.701Z,48.37
2019-04-07T23:39:18.199Z,48.30
2019-04-07T23:41:49.518Z,48.38
2019-04-07T23:44:21.401Z,48.27
2019-04-07T23:46:53.087Z,48.35
2019-04-07T23:49:24.600Z,47.96
2019-04-07T23:51:55.923Z,47.93
2019-04-07T23:54:27.301Z,47.92
2019-04-07T23:56:58.599Z,47.74
2019-04-07T23:59:30.524Z,47.86
